aviador You're here:

KMAO Decoded Metar

MARION in SC, USA
Report Time2018-06-24 06:55:00
UTC Time2018-06-24 06:57:33
Flight Rules vfr VFR
Wind230° at 05 kt
W.Decomp.*RWY 22: 4.8 kt HW 1.4 kt RCW
W.Rank230° ranks 5
Current wind is below 230° avg. (6.8)
Visibility9999 m
Phenomena:N/A
Clouds:N/A
Expected CloudBase > 1,200 ft AGL from Temp-Dew spread
CeilingNone
Temp24°C (ISA +9)
Dew Point21°C (83% RH)
QNH1014 hPa
Density Alt1,450 ft
Elevation92 ft
Report Wrong Elevation
Raw Report
METAR KMAO 240655Z AUTO 23005KT 7SM CLR 24/21 A2993 RMK AO2=

Extra information for KMAO:More info

Metar Taf Metar & Taf Last 4 Metars F.Rules Stats Wind Profile Meteogram Temp Stats Airport Information Weather charts Add Link Nearby VenuesMetar ALERT Operation Metar Decoded Social comments

AIRNAV info for KMAO